sensor_id;sensor_type;location;lat;lon;timestamp;P1;durP1;ratioP1;P2;durP2;ratioP2
2602;SDS011;1311;47.966;7.958;2022-10-30T00:01:34;6.73;;;2.10;;
2602;SDS011;1311;47.966;7.958;2022-10-30T00:04:00;6.33;;;2.23;;
2602;SDS011;1311;47.966;7.958;2022-10-30T00:11:20;9.00;;;2.50;;
2602;SDS011;1311;47.966;7.958;2022-10-30T00:13:48;3.73;;;2.43;;
2602;SDS011;1311;47.966;7.958;2022-10-30T00:16:15;5.57;;;2.13;;
2602;SDS011;1311;47.966;7.958;2022-10-30T00:18:42;7.17;;;2.60;;
2602;SDS011;1311;47.966;7.958;2022-10-30T00:21:10;4.47;;;2.37;;
2602;SDS011;1311;47.966;7.958;2022-10-30T00:23:37;6.67;;;2.20;;
2602;SDS011;1311;47.966;7.958;2022-10-30T10:43:35;7.30;;;3.13;;
2602;SDS011;1311;47.966;7.958;2022-10-30T10:49:07;2.63;;;1.90;;
2602;SDS011;1311;47.966;7.958;2022-10-30T10:51:44;3.77;;;1.73;;
2602;SDS011;1311;47.966;7.958;2022-10-30T10:54:15;2.23;;;1.60;;
2602;SDS011;1311;47.966;7.958;2022-10-30T10:56:46;6.20;;;1.80;;
2602;SDS011;1311;47.966;7.958;2022-10-30T10:59:15;5.17;;;2.70;;
2602;SDS011;1311;47.966;7.958;2022-10-30T11:01:50;3.10;;;2.30;;
2602;SDS011;1311;47.966;7.958;2022-10-30T11:04:23;5.10;;;2.00;;
2602;SDS011;1311;47.966;7.958;2022-10-30T11:06:55;5.50;;;2.10;;
2602;SDS011;1311;47.966;7.958;2022-10-30T11:09:23;3.17;;;1.90;;
2602;SDS011;1311;47.966;7.958;2022-10-30T11:11:52;3.97;;;2.17;;
2602;SDS011;1311;47.966;7.958;2022-10-30T11:14:21;5.30;;;3.00;;
2602;SDS011;1311;47.966;7.958;2022-10-30T11:16:53;2.97;;;2.00;;
2602;SDS011;1311;47.966;7.958;2022-10-30T11:19:28;4.70;;;3.20;;
2602;SDS011;1311;47.966;7.958;2022-10-30T11:21:57;4.27;;;2.50;;
2602;SDS011;1311;47.966;7.958;2022-10-30T11:24:26;4.20;;;2.40;;
2602;SDS011;1311;47.966;7.958;2022-10-30T11:26:55;5.53;;;2.30;;
2602;SDS011;1311;47.966;7.958;2022-10-30T11:29:23;4.30;;;2.67;;
2602;SDS011;1311;47.966;7.958;2022-10-30T11:32:01;5.60;;;3.10;;
2602;SDS011;1311;47.966;7.958;2022-10-30T11:34:32;4.13;;;2.73;;
2602;SDS011;1311;47.966;7.958;2022-10-30T11:37:00;5.63;;;2.90;;
2602;SDS011;1311;47.966;7.958;2022-10-30T11:39:28;4.60;;;2.90;;
2602;SDS011;1311;47.966;7.958;2022-10-30T11:41:57;15.03;;;2.70;;
2602;SDS011;1311;47.966;7.958;2022-10-30T11:44:28;8.07;;;3.13;;
2602;SDS011;1311;47.966;7.958;2022-10-30T11:47:01;10.60;;;2.90;;
2602;SDS011;1311;47.966;7.958;2022-10-30T11:49:31;3.83;;;2.40;;
2602;SDS011;1311;47.966;7.958;2022-10-30T11:52:02;6.03;;;2.83;;
2602;SDS011;1311;47.966;7.958;2022-10-30T11:54:33;3.53;;;2.20;;
2602;SDS011;1311;47.966;7.958;2022-10-30T11:57:01;7.77;;;2.67;;
2602;SDS011;1311;47.966;7.958;2022-10-30T11:59:28;10.07;;;3.67;;
2602;SDS011;1311;47.966;7.958;2022-10-30T12:02:00;6.77;;;3.13;;
2602;SDS011;1311;47.966;7.958;2022-10-30T12:04:43;8.93;;;2.87;;
2602;SDS011;1311;47.966;7.958;2022-10-30T12:07:16;4.73;;;2.80;;
2602;SDS011;1311;47.966;7.958;2022-10-30T12:09:49;3.77;;;2.70;;
2602;SDS011;1311;47.966;7.958;2022-10-30T12:12:19;4.93;;;2.30;;
2602;SDS011;1311;47.966;7.958;2022-10-30T12:14:48;4.50;;;2.30;;
2602;SDS011;1311;47.966;7.958;2022-10-30T12:17:18;5.20;;;2.10;;
2602;SDS011;1311;47.966;7.958;2022-10-30T12:19:47;5.60;;;2.40;;
2602;SDS011;1311;47.966;7.958;2022-10-30T12:22:23;4.17;;;2.20;;
2602;SDS011;1311;47.966;7.958;2022-10-30T12:24:52;2.60;;;1.90;;
2602;SDS011;1311;47.966;7.958;2022-10-30T12:27:18;3.20;;;2.57;;
2602;SDS011;1311;47.966;7.958;2022-10-30T12:29:48;5.40;;;3.37;;
2602;SDS011;1311;47.966;7.958;2022-10-30T12:32:27;7.30;;;3.37;;
2602;SDS011;1311;47.966;7.958;2022-10-30T12:35:00;4.77;;;3.50;;
2602;SDS011;1311;47.966;7.958;2022-10-30T12:37:33;5.90;;;3.03;;
2602;SDS011;1311;47.966;7.958;2022-10-30T12:40:07;8.77;;;3.80;;
2602;SDS011;1311;47.966;7.958;2022-10-30T12:42:41;3.93;;;2.93;;
2602;SDS011;1311;47.966;7.958;2022-10-30T12:45:14;6.00;;;3.80;;
2602;SDS011;1311;47.966;7.958;2022-10-30T12:47:47;6.83;;;3.57;;
2602;SDS011;1311;47.966;7.958;2022-10-30T12:50:18;8.50;;;3.63;;
2602;SDS011;1311;47.966;7.958;2022-10-30T12:52:49;4.63;;;2.50;;
2602;SDS011;1311;47.966;7.958;2022-10-30T12:55:22;5.63;;;2.60;;
2602;SDS011;1311;47.966;7.958;2022-10-30T12:57:55;4.30;;;3.03;;
2602;SDS011;1311;47.966;7.958;2022-10-30T13:00:28;5.07;;;3.00;;
2602;SDS011;1311;47.966;7.958;2022-10-30T13:03:00;4.27;;;3.03;;
2602;SDS011;1311;47.966;7.958;2022-10-30T13:05:39;7.70;;;3.23;;
2602;SDS011;1311;47.966;7.958;2022-10-30T13:08:12;3.00;;;2.00;;
2602;SDS011;1311;47.966;7.958;2022-10-30T13:10:44;6.10;;;2.30;;
2602;SDS011;1311;47.966;7.958;2022-10-30T13:13:15;3.70;;;2.40;;
2602;SDS011;1311;47.966;7.958;2022-10-30T13:15:45;4.47;;;2.30;;
2602;SDS011;1311;47.966;7.958;2022-10-30T13:18:16;3.30;;;2.00;;
2602;SDS011;1311;47.966;7.958;2022-10-30T13:20:49;3.00;;;2.37;;
2602;SDS011;1311;47.966;7.958;2022-10-30T13:23:36;5.13;;;2.43;;
2602;SDS011;1311;47.966;7.958;2022-10-30T13:26:12;1.80;;;1.67;;
2602;SDS011;1311;47.966;7.958;2022-10-30T13:28:46;1.97;;;1.73;;
2602;SDS011;1311;47.966;7.958;2022-10-30T13:31:22;3.47;;;1.90;;
2602;SDS011;1311;47.966;7.958;2022-10-30T13:34:00;2.73;;;1.90;;
2602;SDS011;1311;47.966;7.958;2022-10-30T13:36:31;3.10;;;2.00;;
2602;SDS011;1311;47.966;7.958;2022-10-30T13:39:06;4.13;;;2.30;;
2602;SDS011;1311;47.966;7.958;2022-10-30T13:41:42;1.90;;;1.70;;
2602;SDS011;1311;47.966;7.958;2022-10-30T13:44:24;2.90;;;1.97;;
2602;SDS011;1311;47.966;7.958;2022-10-30T13:47:03;3.73;;;2.00;;
2602;SDS011;1311;47.966;7.958;2022-10-30T13:49:41;3.20;;;1.97;;
2602;SDS011;1311;47.966;7.958;2022-10-30T13:52:18;2.03;;;1.87;;
2602;SDS011;1311;47.966;7.958;2022-10-30T13:54:47;4.70;;;2.90;;
2602;SDS011;1311;47.966;7.958;2022-10-30T13:57:25;8.77;;;2.60;;
2602;SDS011;1311;47.966;7.958;2022-10-30T13:59:58;1.77;;;1.60;;
2602;SDS011;1311;47.966;7.958;2022-10-30T14:02:33;5.40;;;2.30;;
2602;SDS011;1311;47.966;7.958;2022-10-30T14:05:14;3.80;;;1.90;;
2602;SDS011;1311;47.966;7.958;2022-10-30T14:07:53;1.73;;;1.60;;
2602;SDS011;1311;47.966;7.958;2022-10-30T14:10:30;2.17;;;1.90;;
2602;SDS011;1311;47.966;7.958;2022-10-30T14:13:12;3.07;;;2.30;;
2602;SDS011;1311;47.966;7.958;2022-10-30T14:15:42;3.97;;;2.00;;
2602;SDS011;1311;47.966;7.958;2022-10-30T14:18:19;2.37;;;1.90;;
2602;SDS011;1311;47.966;7.958;2022-10-30T14:20:58;2.53;;;2.00;;
2602;SDS011;1311;47.966;7.958;2022-10-30T14:23:45;3.17;;;2.10;;
2602;SDS011;1311;47.966;7.958;2022-10-30T14:26:12;2.30;;;2.00;;
2602;SDS011;1311;47.966;7.958;2022-10-30T14:28:40;3.53;;;2.37;;
2602;SDS011;1311;47.966;7.958;2022-10-30T14:31:10;2.10;;;1.73;;
2602;SDS011;1311;47.966;7.958;2022-10-30T14:33:41;5.47;;;2.20;;
2602;SDS011;1311;47.966;7.958;2022-10-30T14:36:20;4.20;;;1.93;;
2602;SDS011;1311;47.966;7.958;2022-10-30T14:38:51;3.80;;;1.80;;
2602;SDS011;1311;47.966;7.958;2022-10-30T14:44:22;3.13;;;1.70;;
2602;SDS011;1311;47.966;7.958;2022-10-30T14:50:12;2.60;;;2.27;;
2602;SDS011;1311;47.966;7.958;2022-10-30T14:56:02;2.83;;;1.80;;
2602;SDS011;1311;47.966;7.958;2022-10-30T14:58:32;2.00;;;1.50;;
2602;SDS011;1311;47.966;7.958;2022-10-30T15:04:11;1.90;;;1.70;;
2602;SDS011;1311;47.966;7.958;2022-10-30T15:06:57;4.70;;;1.90;;
2602;SDS011;1311;47.966;7.958;2022-10-30T15:09:35;6.13;;;2.27;;
2602;SDS011;1311;47.966;7.958;2022-10-30T15:12:19;2.97;;;1.80;;
2602;SDS011;1311;47.966;7.958;2022-10-30T15:14:58;1.60;;;1.50;;
2602;SDS011;1311;47.966;7.958;2022-10-30T15:17:28;3.50;;;2.17;;
2602;SDS011;1311;47.966;7.958;2022-10-30T15:19:58;2.80;;;2.03;;
2602;SDS011;1311;47.966;7.958;2022-10-30T15:22:28;2.47;;;1.97;;
2602;SDS011;1311;47.966;7.958;2022-10-30T15:24:59;3.87;;;1.60;;
2602;SDS011;1311;47.966;7.958;2022-10-30T15:27:26;3.03;;;1.77;;
2602;SDS011;1311;47.966;7.958;2022-10-30T15:29:54;1.97;;;1.50;;
2602;SDS011;1311;47.966;7.958;2022-10-30T15:32:24;3.60;;;2.00;;
2602;SDS011;1311;47.966;7.958;2022-10-30T15:34:52;2.27;;;1.93;;
2602;SDS011;1311;47.966;7.958;2022-10-30T15:37:20;4.73;;;2.40;;
2602;SDS011;1311;47.966;7.958;2022-10-30T15:39:48;6.80;;;1.77;;
2602;SDS011;1311;47.966;7.958;2022-10-30T15:42:16;3.30;;;2.10;;
2602;SDS011;1311;47.966;7.958;2022-10-30T15:44:43;3.53;;;1.60;;
2602;SDS011;1311;47.966;7.958;2022-10-30T15:47:12;3.43;;;2.00;;
2602;SDS011;1311;47.966;7.958;2022-10-30T15:49:45;2.47;;;1.83;;
2602;SDS011;1311;47.966;7.958;2022-10-30T15:52:16;1.70;;;1.50;;
2602;SDS011;1311;47.966;7.958;2022-10-30T15:54:46;2.80;;;1.43;;
2602;SDS011;1311;47.966;7.958;2022-10-30T15:57:19;7.27;;;5.57;;
2602;SDS011;1311;47.966;7.958;2022-10-30T15:59:53;7.67;;;4.00;;
2602;SDS011;1311;47.966;7.958;2022-10-30T16:02:24;3.53;;;2.73;;
2602;SDS011;1311;47.966;7.958;2022-10-30T16:04:51;2.40;;;2.20;;
2602;SDS011;1311;47.966;7.958;2022-10-30T16:07:19;3.67;;;1.87;;
2602;SDS011;1311;47.966;7.958;2022-10-30T16:09:50;2.70;;;2.20;;
2602;SDS011;1311;47.966;7.958;2022-10-30T16:12:21;4.90;;;2.57;;
2602;SDS011;1311;47.966;7.958;2022-10-30T16:14:49;8.00;;;2.70;;
2602;SDS011;1311;47.966;7.958;2022-10-30T16:17:17;2.90;;;1.90;;
2602;SDS011;1311;47.966;7.958;2022-10-30T16:19:44;2.40;;;2.13;;
2602;SDS011;1311;47.966;7.958;2022-10-30T16:22:15;2.93;;;2.07;;
2602;SDS011;1311;47.966;7.958;2022-10-30T16:24:47;2.40;;;2.03;;
2602;SDS011;1311;47.966;7.958;2022-10-30T16:27:15;5.20;;;4.70;;
2602;SDS011;1311;47.966;7.958;2022-10-30T16:29:44;7.60;;;6.80;;
2602;SDS011;1311;47.966;7.958;2022-10-30T16:32:15;10.03;;;8.53;;
2602;SDS011;1311;47.966;7.958;2022-10-30T16:34:44;8.27;;;4.27;;
2602;SDS011;1311;47.966;7.958;2022-10-30T16:37:12;9.10;;;4.57;;
2602;SDS011;1311;47.966;7.958;2022-10-30T16:39:42;9.03;;;3.47;;
2602;SDS011;1311;47.966;7.958;2022-10-30T16:42:16;5.60;;;3.40;;
2602;SDS011;1311;47.966;7.958;2022-10-30T16:44:46;4.90;;;3.10;;
2602;SDS011;1311;47.966;7.958;2022-10-30T16:47:21;3.73;;;2.30;;
2602;SDS011;1311;47.966;7.958;2022-10-30T16:49:50;3.53;;;2.60;;
2602;SDS011;1311;47.966;7.958;2022-10-30T16:52:19;6.17;;;3.20;;
2602;SDS011;1311;47.966;7.958;2022-10-30T16:54:51;4.47;;;2.33;;
2602;SDS011;1311;47.966;7.958;2022-10-30T16:57:25;8.33;;;2.90;;
2602;SDS011;1311;47.966;7.958;2022-10-30T16:59:55;7.13;;;3.20;;
2602;SDS011;1311;47.966;7.958;2022-10-30T17:02:24;5.40;;;4.20;;
2602;SDS011;1311;47.966;7.958;2022-10-30T17:05:01;4.53;;;4.00;;
2602;SDS011;1311;47.966;7.958;2022-10-30T17:07:35;3.90;;;2.40;;
2602;SDS011;1311;47.966;7.958;2022-10-30T17:10:16;4.33;;;2.60;;
2602;SDS011;1311;47.966;7.958;2022-10-30T17:16:10;6.13;;;4.27;;
2602;SDS011;1311;47.966;7.958;2022-10-30T17:18:43;8.10;;;3.90;;
2602;SDS011;1311;47.966;7.958;2022-10-30T17:21:10;6.80;;;3.43;;
2602;SDS011;1311;47.966;7.958;2022-10-30T17:23:43;3.17;;;2.87;;
2602;SDS011;1311;47.966;7.958;2022-10-30T17:26:10;3.97;;;3.07;;
2602;SDS011;1311;47.966;7.958;2022-10-30T17:28:39;4.60;;;3.27;;
2602;SDS011;1311;47.966;7.958;2022-10-30T17:31:21;5.77;;;3.30;;
2602;SDS011;1311;47.966;7.958;2022-10-30T17:36:45;5.40;;;3.10;;
2602;SDS011;1311;47.966;7.958;2022-10-30T17:39:13;4.43;;;2.67;;
2602;SDS011;1311;47.966;7.958;2022-10-30T17:41:40;8.83;;;3.17;;
2602;SDS011;1311;47.966;7.958;2022-10-30T17:44:11;5.43;;;2.97;;
2602;SDS011;1311;47.966;7.958;2022-10-30T17:46:43;3.73;;;2.53;;
2602;SDS011;1311;47.966;7.958;2022-10-30T17:49:17;7.93;;;3.33;;
2602;SDS011;1311;47.966;7.958;2022-10-30T17:51:49;5.03;;;3.40;;
2602;SDS011;1311;47.966;7.958;2022-10-30T17:54:16;5.97;;;3.07;;
2602;SDS011;1311;47.966;7.958;2022-10-30T17:56:43;4.57;;;2.40;;
2602;SDS011;1311;47.966;7.958;2022-10-30T17:59:09;3.07;;;2.13;;
2602;SDS011;1311;47.966;7.958;2022-10-30T18:01:36;3.67;;;2.03;;
2602;SDS011;1311;47.966;7.958;2022-10-30T18:04:07;7.63;;;4.27;;
2602;SDS011;1311;47.966;7.958;2022-10-30T18:06:37;7.03;;;3.93;;
2602;SDS011;1311;47.966;7.958;2022-10-30T18:09:04;4.77;;;3.20;;
2602;SDS011;1311;47.966;7.958;2022-10-30T18:11:31;13.17;;;4.63;;
2602;SDS011;1311;47.966;7.958;2022-10-30T18:13:58;5.90;;;3.83;;
2602;SDS011;1311;47.966;7.958;2022-10-30T18:16:25;6.10;;;3.50;;
2602;SDS011;1311;47.966;7.958;2022-10-30T18:18:52;8.40;;;3.20;;
2602;SDS011;1311;47.966;7.958;2022-10-30T18:21:21;8.50;;;3.40;;
2602;SDS011;1311;47.966;7.958;2022-10-30T18:23:51;5.47;;;3.60;;
2602;SDS011;1311;47.966;7.958;2022-10-30T18:26:19;4.63;;;3.00;;
2602;SDS011;1311;47.966;7.958;2022-10-30T18:28:47;5.37;;;3.73;;
2602;SDS011;1311;47.966;7.958;2022-10-30T18:31:14;4.77;;;3.43;;
2602;SDS011;1311;47.966;7.958;2022-10-30T18:33:42;9.70;;;2.93;;
2602;SDS011;1311;47.966;7.958;2022-10-30T18:36:10;3.13;;;2.60;;
2602;SDS011;1311;47.966;7.958;2022-10-30T18:38:39;6.03;;;2.67;;
2602;SDS011;1311;47.966;7.958;2022-10-30T18:41:08;4.70;;;2.93;;
2602;SDS011;1311;47.966;7.958;2022-10-30T18:43:38;8.87;;;3.27;;
2602;SDS011;1311;47.966;7.958;2022-10-30T18:46:06;3.87;;;2.90;;
2602;SDS011;1311;47.966;7.958;2022-10-30T18:48:34;6.20;;;2.70;;
2602;SDS011;1311;47.966;7.958;2022-10-30T18:51:02;6.07;;;3.30;;
2602;SDS011;1311;47.966;7.958;2022-10-30T18:53:29;5.07;;;3.60;;
2602;SDS011;1311;47.966;7.958;2022-10-30T18:55:57;7.60;;;3.77;;
2602;SDS011;1311;47.966;7.958;2022-10-30T18:58:24;6.33;;;3.00;;
2602;SDS011;1311;47.966;7.958;2022-10-30T19:00:51;4.33;;;2.70;;
2602;SDS011;1311;47.966;7.958;2022-10-30T19:03:18;8.33;;;2.60;;
2602;SDS011;1311;47.966;7.958;2022-10-30T19:05:45;5.47;;;2.90;;
2602;SDS011;1311;47.966;7.958;2022-10-30T19:08:13;5.00;;;3.10;;
2602;SDS011;1311;47.966;7.958;2022-10-30T19:10:41;7.03;;;3.30;;
2602;SDS011;1311;47.966;7.958;2022-10-30T19:13:12;4.87;;;3.07;;
2602;SDS011;1311;47.966;7.958;2022-10-30T19:15:44;6.00;;;2.60;;
2602;SDS011;1311;47.966;7.958;2022-10-30T19:18:12;5.30;;;2.37;;
2602;SDS011;1311;47.966;7.958;2022-10-30T19:20:40;3.93;;;2.00;;
2602;SDS011;1311;47.966;7.958;2022-10-30T19:23:10;5.30;;;2.20;;
2602;SDS011;1311;47.966;7.958;2022-10-30T19:25:39;10.10;;;2.20;;
2602;SDS011;1311;47.966;7.958;2022-10-30T19:28:08;3.17;;;2.10;;
2602;SDS011;1311;47.966;7.958;2022-10-30T19:30:36;4.80;;;2.97;;
2602;SDS011;1311;47.966;7.958;2022-10-30T19:33:03;4.07;;;2.90;;
2602;SDS011;1311;47.966;7.958;2022-10-30T19:35:31;5.97;;;3.30;;
2602;SDS011;1311;47.966;7.958;2022-10-30T19:37:58;4.33;;;3.27;;
2602;SDS011;1311;47.966;7.958;2022-10-30T19:40:25;5.67;;;3.27;;
2602;SDS011;1311;47.966;7.958;2022-10-30T19:42:53;5.67;;;3.40;;
2602;SDS011;1311;47.966;7.958;2022-10-30T19:45:23;6.40;;;3.70;;
2602;SDS011;1311;47.966;7.958;2022-10-30T19:47:53;2.90;;;2.50;;
2602;SDS011;1311;47.966;7.958;2022-10-30T19:50:23;4.03;;;2.93;;
2602;SDS011;1311;47.966;7.958;2022-10-30T19:52:53;5.07;;;2.67;;
2602;SDS011;1311;47.966;7.958;2022-10-30T19:55:20;3.47;;;2.27;;
2602;SDS011;1311;47.966;7.958;2022-10-30T19:57:48;7.70;;;3.10;;
2602;SDS011;1311;47.966;7.958;2022-10-30T20:00:16;4.50;;;2.53;;
2602;SDS011;1311;47.966;7.958;2022-10-30T20:02:46;5.53;;;2.80;;
2602;SDS011;1311;47.966;7.958;2022-10-30T20:05:13;8.47;;;2.50;;
2602;SDS011;1311;47.966;7.958;2022-10-30T20:07:41;7.87;;;2.70;;
2602;SDS011;1311;47.966;7.958;2022-10-30T20:10:13;5.30;;;2.77;;
2602;SDS011;1311;47.966;7.958;2022-10-30T20:12:41;3.70;;;2.80;;
2602;SDS011;1311;47.966;7.958;2022-10-30T20:15:11;3.40;;;2.40;;
2602;SDS011;1311;47.966;7.958;2022-10-30T20:17:43;3.90;;;2.20;;
2602;SDS011;1311;47.966;7.958;2022-10-30T20:20:16;3.80;;;2.10;;
2602;SDS011;1311;47.966;7.958;2022-10-30T20:22:44;4.50;;;2.03;;
2602;SDS011;1311;47.966;7.958;2022-10-30T20:25:11;6.87;;;2.20;;
2602;SDS011;1311;47.966;7.958;2022-10-30T20:27:38;5.50;;;2.30;;
2602;SDS011;1311;47.966;7.958;2022-10-30T20:30:07;7.63;;;2.80;;
2602;SDS011;1311;47.966;7.958;2022-10-30T20:32:37;4.07;;;2.30;;
2602;SDS011;1311;47.966;7.958;2022-10-30T20:35:04;4.60;;;3.70;;
2602;SDS011;1311;47.966;7.958;2022-10-30T20:37:32;8.63;;;5.00;;
2602;SDS011;1311;47.966;7.958;2022-10-30T20:39:59;8.20;;;4.47;;
2602;SDS011;1311;47.966;7.958;2022-10-30T20:42:26;5.23;;;3.67;;
2602;SDS011;1311;47.966;7.958;2022-10-30T20:44:53;7.80;;;3.63;;
2602;SDS011;1311;47.966;7.958;2022-10-30T20:47:20;5.17;;;3.33;;
2602;SDS011;1311;47.966;7.958;2022-10-30T20:49:46;5.30;;;3.30;;
2602;SDS011;1311;47.966;7.958;2022-10-30T20:52:13;5.73;;;3.80;;
2602;SDS011;1311;47.966;7.958;2022-10-30T20:54:41;3.87;;;3.47;;
2602;SDS011;1311;47.966;7.958;2022-10-30T20:57:08;3.80;;;2.93;;
2602;SDS011;1311;47.966;7.958;2022-10-30T20:59:35;5.47;;;2.67;;
2602;SDS011;1311;47.966;7.958;2022-10-30T21:02:02;4.93;;;2.03;;
2602;SDS011;1311;47.966;7.958;2022-10-30T21:04:29;4.15;;;2.40;;
2602;SDS011;1311;47.966;7.958;2022-10-30T21:06:56;4.53;;;2.40;;
2602;SDS011;1311;47.966;7.958;2022-10-30T21:09:22;3.80;;;2.57;;
2602;SDS011;1311;47.966;7.958;2022-10-30T21:11:51;4.17;;;2.30;;
2602;SDS011;1311;47.966;7.958;2022-10-30T21:14:18;3.33;;;2.30;;
2602;SDS011;1311;47.966;7.958;2022-10-30T21:16:44;3.13;;;1.90;;
2602;SDS011;1311;47.966;7.958;2022-10-30T21:19:11;7.25;;;2.35;;
2602;SDS011;1311;47.966;7.958;2022-10-30T21:21:38;2.70;;;1.90;;
2602;SDS011;1311;47.966;7.958;2022-10-30T21:24:05;6.83;;;2.20;;
2602;SDS011;1311;47.966;7.958;2022-10-30T21:26:32;3.00;;;2.00;;
2602;SDS011;1311;47.966;7.958;2022-10-30T21:29:03;6.67;;;1.70;;
2602;SDS011;1311;47.966;7.958;2022-10-30T21:31:30;3.33;;;1.70;;
2602;SDS011;1311;47.966;7.958;2022-10-30T21:33:57;3.97;;;2.30;;
2602;SDS011;1311;47.966;7.958;2022-10-30T21:36:24;6.90;;;2.17;;
2602;SDS011;1311;47.966;7.958;2022-10-30T21:38:51;4.77;;;1.80;;
2602;SDS011;1311;47.966;7.958;2022-10-30T21:41:19;5.13;;;1.90;;
2602;SDS011;1311;47.966;7.958;2022-10-30T21:43:49;4.13;;;2.20;;
2602;SDS011;1311;47.966;7.958;2022-10-30T21:46:19;5.80;;;2.37;;
2602;SDS011;1311;47.966;7.958;2022-10-30T21:48:46;3.97;;;2.00;;
2602;SDS011;1311;47.966;7.958;2022-10-30T21:51:14;4.90;;;2.20;;
2602;SDS011;1311;47.966;7.958;2022-10-30T21:53:43;5.53;;;1.90;;
2602;SDS011;1311;47.966;7.958;2022-10-30T21:56:11;7.83;;;2.43;;
2602;SDS011;1311;47.966;7.958;2022-10-30T21:58:40;9.40;;;1.90;;
2602;SDS011;1311;47.966;7.958;2022-10-30T22:01:11;6.10;;;1.77;;
2602;SDS011;1311;47.966;7.958;2022-10-30T22:03:41;2.33;;;1.70;;
2602;SDS011;1311;47.966;7.958;2022-10-30T22:06:08;2.80;;;1.87;;
2602;SDS011;1311;47.966;7.958;2022-10-30T22:08:36;3.23;;;1.87;;
2602;SDS011;1311;47.966;7.958;2022-10-30T22:11:03;4.60;;;1.87;;
2602;SDS011;1311;47.966;7.958;2022-10-30T22:13:31;4.53;;;1.70;;
2602;SDS011;1311;47.966;7.958;2022-10-30T22:15:58;2.77;;;1.97;;
2602;SDS011;1311;47.966;7.958;2022-10-30T22:18:26;6.17;;;2.07;;
2602;SDS011;1311;47.966;7.958;2022-10-30T22:20:58;4.03;;;2.13;;
2602;SDS011;1311;47.966;7.958;2022-10-30T22:23:26;2.57;;;1.70;;
2602;SDS011;1311;47.966;7.958;2022-10-30T22:25:53;2.80;;;1.80;;
2602;SDS011;1311;47.966;7.958;2022-10-30T22:28:20;2.60;;;1.57;;
2602;SDS011;1311;47.966;7.958;2022-10-30T22:30:47;3.53;;;1.83;;
2602;SDS011;1311;47.966;7.958;2022-10-30T22:33:14;3.80;;;1.97;;
2602;SDS011;1311;47.966;7.958;2022-10-30T22:35:40;6.13;;;2.07;;
2602;SDS011;1311;47.966;7.958;2022-10-30T22:38:09;4.90;;;2.10;;
2602;SDS011;1311;47.966;7.958;2022-10-30T22:40:36;6.20;;;2.10;;
2602;SDS011;1311;47.966;7.958;2022-10-30T22:43:04;3.67;;;1.80;;
2602;SDS011;1311;47.966;7.958;2022-10-30T22:45:30;4.40;;;2.33;;
2602;SDS011;1311;47.966;7.958;2022-10-30T22:47:57;4.27;;;2.00;;
2602;SDS011;1311;47.966;7.958;2022-10-30T22:50:24;3.10;;;2.00;;
2602;SDS011;1311;47.966;7.958;2022-10-30T22:52:51;5.57;;;2.10;;
2602;SDS011;1311;47.966;7.958;2022-10-30T22:55:19;2.03;;;1.73;;
2602;SDS011;1311;47.966;7.958;2022-10-30T22:57:46;3.10;;;1.53;;
2602;SDS011;1311;47.966;7.958;2022-10-30T23:00:17;3.73;;;1.97;;
2602;SDS011;1311;47.966;7.958;2022-10-30T23:02:50;3.57;;;1.73;;
2602;SDS011;1311;47.966;7.958;2022-10-30T23:05:17;3.57;;;1.93;;
2602;SDS011;1311;47.966;7.958;2022-10-30T23:07:44;7.37;;;2.30;;
2602;SDS011;1311;47.966;7.958;2022-10-30T23:10:11;4.37;;;2.03;;
2602;SDS011;1311;47.966;7.958;2022-10-30T23:12:39;5.30;;;2.10;;
2602;SDS011;1311;47.966;7.958;2022-10-30T23:15:06;2.70;;;1.80;;
2602;SDS011;1311;47.966;7.958;2022-10-30T23:17:34;3.87;;;1.60;;
2602;SDS011;1311;47.966;7.958;2022-10-30T23:20:01;4.90;;;1.97;;
2602;SDS011;1311;47.966;7.958;2022-10-30T23:22:27;3.83;;;2.00;;
2602;SDS011;1311;47.966;7.958;2022-10-30T23:24:54;2.75;;;1.75;;
2602;SDS011;1311;47.966;7.958;2022-10-30T23:27:21;4.83;;;1.97;;
2602;SDS011;1311;47.966;7.958;2022-10-30T23:29:49;4.17;;;2.00;;
2602;SDS011;1311;47.966;7.958;2022-10-30T23:44:32;3.60;;;2.50;;
2602;SDS011;1311;47.966;7.958;2022-10-30T23:47:00;2.63;;;2.03;;
2602;SDS011;1311;47.966;7.958;2022-10-30T23:49:26;6.53;;;2.50;;
2602;SDS011;1311;47.966;7.958;2022-10-30T23:51:53;7.10;;;2.40;;
2602;SDS011;1311;47.966;7.958;2022-10-30T23:54:20;6.13;;;2.20;;
2602;SDS011;1311;47.966;7.958;2022-10-30T23:56:47;3.30;;;2.23;;
2602;SDS011;1311;47.966;7.958;2022-10-30T23:59:13;3.80;;;1.80;;
